sensor_id;sensor_type;location;lat;lon;timestamp;P1;durP1;ratioP1;P2;durP2;ratioP2
38615;SDS011;24370;51.986;4.666;2023-04-25T00:00:38;26.87;;;4.07;;
38615;SDS011;24370;51.986;4.666;2023-04-25T00:03:03;25.87;;;7.57;;
38615;SDS011;24370;51.986;4.666;2023-04-25T00:05:31;22.13;;;4.30;;
38615;SDS011;24370;51.986;4.666;2023-04-25T00:07:57;21.93;;;5.47;;
38615;SDS011;24370;51.986;4.666;2023-04-25T00:10:23;25.80;;;4.93;;
38615;SDS011;24370;51.986;4.666;2023-04-25T00:12:48;30.20;;;5.80;;
38615;SDS011;24370;51.986;4.666;2023-04-25T00:15:14;18.47;;;3.60;;
38615;SDS011;24370;51.986;4.666;2023-04-25T00:17:39;17.00;;;3.87;;
38615;SDS011;24370;51.986;4.666;2023-04-25T00:20:05;20.63;;;3.60;;
38615;SDS011;24370;51.986;4.666;2023-04-25T00:22:32;26.47;;;4.13;;
38615;SDS011;24370;51.986;4.666;2023-04-25T00:24:59;27.00;;;4.57;;
38615;SDS011;24370;51.986;4.666;2023-04-25T00:27:25;23.40;;;4.30;;
38615;SDS011;24370;51.986;4.666;2023-04-25T00:29:51;17.73;;;4.17;;
38615;SDS011;24370;51.986;4.666;2023-04-25T00:32:17;21.83;;;4.33;;
38615;SDS011;24370;51.986;4.666;2023-04-25T00:34:42;21.00;;;5.10;;
38615;SDS011;24370;51.986;4.666;2023-04-25T00:37:07;20.40;;;4.30;;
38615;SDS011;24370;51.986;4.666;2023-04-25T00:39:33;17.80;;;5.03;;
38615;SDS011;24370;51.986;4.666;2023-04-25T00:41:58;25.17;;;6.20;;
38615;SDS011;24370;51.986;4.666;2023-04-25T00:44:24;22.73;;;6.53;;
38615;SDS011;24370;51.986;4.666;2023-04-25T00:46:50;25.67;;;5.90;;
38615;SDS011;24370;51.986;4.666;2023-04-25T00:49:15;25.83;;;4.97;;
38615;SDS011;24370;51.986;4.666;2023-04-25T00:51:42;18.47;;;4.50;;
38615;SDS011;24370;51.986;4.666;2023-04-25T00:54:10;18.80;;;3.50;;
38615;SDS011;24370;51.986;4.666;2023-04-25T00:56:36;24.80;;;3.73;;
38615;SDS011;24370;51.986;4.666;2023-04-25T00:59:02;19.10;;;5.13;;
38615;SDS011;24370;51.986;4.666;2023-04-25T01:01:31;18.20;;;3.70;;
38615;SDS011;24370;51.986;4.666;2023-04-25T01:03:58;22.93;;;3.97;;
38615;SDS011;24370;51.986;4.666;2023-04-25T01:06:24;17.47;;;3.73;;
38615;SDS011;24370;51.986;4.666;2023-04-25T01:08:49;19.87;;;3.63;;
38615;SDS011;24370;51.986;4.666;2023-04-25T01:11:16;16.03;;;4.27;;
38615;SDS011;24370;51.986;4.666;2023-04-25T01:13:41;22.73;;;4.43;;
38615;SDS011;24370;51.986;4.666;2023-04-25T01:16:07;21.40;;;4.03;;
38615;SDS011;24370;51.986;4.666;2023-04-25T01:18:32;19.40;;;3.90;;
38615;SDS011;24370;51.986;4.666;2023-04-25T01:21:16;18.20;;;3.17;;
38615;SDS011;24370;51.986;4.666;2023-04-25T01:23:42;18.17;;;4.67;;
38615;SDS011;24370;51.986;4.666;2023-04-25T01:26:11;20.70;;;4.77;;
38615;SDS011;24370;51.986;4.666;2023-04-25T01:28:37;21.97;;;5.10;;
38615;SDS011;24370;51.986;4.666;2023-04-25T01:31:04;20.07;;;5.07;;
38615;SDS011;24370;51.986;4.666;2023-04-25T01:33:30;21.40;;;4.50;;
38615;SDS011;24370;51.986;4.666;2023-04-25T01:35:56;22.37;;;5.97;;
38615;SDS011;24370;51.986;4.666;2023-04-25T01:38:21;13.20;;;3.30;;
38615;SDS011;24370;51.986;4.666;2023-04-25T01:40:47;14.70;;;3.83;;
38615;SDS011;24370;51.986;4.666;2023-04-25T01:43:15;12.10;;;4.20;;
38615;SDS011;24370;51.986;4.666;2023-04-25T01:45:41;14.83;;;4.17;;
38615;SDS011;24370;51.986;4.666;2023-04-25T01:48:08;19.73;;;4.20;;
38615;SDS011;24370;51.986;4.666;2023-04-25T01:50:34;17.63;;;4.70;;
38615;SDS011;24370;51.986;4.666;2023-04-25T01:52:59;11.80;;;4.10;;
38615;SDS011;24370;51.986;4.666;2023-04-25T01:55:26;17.83;;;3.57;;
38615;SDS011;24370;51.986;4.666;2023-04-25T01:57:52;21.53;;;4.07;;
38615;SDS011;24370;51.986;4.666;2023-04-25T02:00:17;21.83;;;4.93;;
38615;SDS011;24370;51.986;4.666;2023-04-25T02:02:43;18.37;;;4.23;;
38615;SDS011;24370;51.986;4.666;2023-04-25T02:05:08;22.20;;;5.00;;
38615;SDS011;24370;51.986;4.666;2023-04-25T02:07:34;16.60;;;4.43;;
38615;SDS011;24370;51.986;4.666;2023-04-25T02:09:59;20.97;;;4.60;;
38615;SDS011;24370;51.986;4.666;2023-04-25T02:12:25;25.67;;;6.67;;
38615;SDS011;24370;51.986;4.666;2023-04-25T02:14:51;20.03;;;6.60;;
38615;SDS011;24370;51.986;4.666;2023-04-25T02:17:16;21.37;;;5.57;;
38615;SDS011;24370;51.986;4.666;2023-04-25T02:19:42;16.73;;;5.50;;
38615;SDS011;24370;51.986;4.666;2023-04-25T02:22:08;18.30;;;4.93;;
38615;SDS011;24370;51.986;4.666;2023-04-25T02:24:33;25.43;;;4.97;;
38615;SDS011;24370;51.986;4.666;2023-04-25T02:26:59;13.53;;;3.40;;
38615;SDS011;24370;51.986;4.666;2023-04-25T02:29:25;14.03;;;3.97;;
38615;SDS011;24370;51.986;4.666;2023-04-25T02:31:51;18.40;;;4.10;;
38615;SDS011;24370;51.986;4.666;2023-04-25T02:34:16;21.67;;;4.33;;
38615;SDS011;24370;51.986;4.666;2023-04-25T02:36:41;19.63;;;4.67;;
38615;SDS011;24370;51.986;4.666;2023-04-25T02:39:07;17.50;;;3.87;;
38615;SDS011;24370;51.986;4.666;2023-04-25T02:41:32;19.40;;;4.73;;
38615;SDS011;24370;51.986;4.666;2023-04-25T02:43:58;19.60;;;4.63;;
38615;SDS011;24370;51.986;4.666;2023-04-25T02:46:23;12.47;;;3.40;;
38615;SDS011;24370;51.986;4.666;2023-04-25T02:48:48;18.40;;;3.53;;
38615;SDS011;24370;51.986;4.666;2023-04-25T02:51:14;14.60;;;2.97;;
38615;SDS011;24370;51.986;4.666;2023-04-25T02:53:41;13.97;;;2.97;;
38615;SDS011;24370;51.986;4.666;2023-04-25T02:56:06;9.57;;;3.10;;
38615;SDS011;24370;51.986;4.666;2023-04-25T02:58:32;20.90;;;3.17;;
38615;SDS011;24370;51.986;4.666;2023-04-25T03:00:57;15.83;;;2.83;;
38615;SDS011;24370;51.986;4.666;2023-04-25T03:03:22;17.00;;;3.50;;
38615;SDS011;24370;51.986;4.666;2023-04-25T03:05:51;11.53;;;3.67;;
38615;SDS011;24370;51.986;4.666;2023-04-25T03:08:17;11.77;;;2.80;;
38615;SDS011;24370;51.986;4.666;2023-04-25T03:10:43;12.83;;;3.33;;
38615;SDS011;24370;51.986;4.666;2023-04-25T03:13:09;15.47;;;3.40;;
38615;SDS011;24370;51.986;4.666;2023-04-25T03:15:35;12.70;;;3.07;;
38615;SDS011;24370;51.986;4.666;2023-04-25T03:18:01;15.37;;;2.53;;
38615;SDS011;24370;51.986;4.666;2023-04-25T03:20:26;11.33;;;2.87;;
38615;SDS011;24370;51.986;4.666;2023-04-25T03:22:51;10.70;;;2.53;;
38615;SDS011;24370;51.986;4.666;2023-04-25T03:25:17;11.73;;;2.50;;
38615;SDS011;24370;51.986;4.666;2023-04-25T03:27:42;14.03;;;3.13;;
38615;SDS011;24370;51.986;4.666;2023-04-25T03:30:07;14.20;;;2.80;;
38615;SDS011;24370;51.986;4.666;2023-04-25T03:32:33;14.43;;;3.50;;
38615;SDS011;24370;51.986;4.666;2023-04-25T03:34:59;18.13;;;2.97;;
38615;SDS011;24370;51.986;4.666;2023-04-25T03:37:25;9.77;;;2.57;;
38615;SDS011;24370;51.986;4.666;2023-04-25T03:39:50;7.97;;;2.43;;
38615;SDS011;24370;51.986;4.666;2023-04-25T03:42:15;8.63;;;2.30;;
38615;SDS011;24370;51.986;4.666;2023-04-25T03:44:41;8.40;;;2.27;;
38615;SDS011;24370;51.986;4.666;2023-04-25T03:47:07;10.33;;;2.47;;
38615;SDS011;24370;51.986;4.666;2023-04-25T03:49:32;16.00;;;2.33;;
38615;SDS011;24370;51.986;4.666;2023-04-25T03:52:00;10.70;;;2.67;;
38615;SDS011;24370;51.986;4.666;2023-04-25T03:54:26;10.63;;;2.40;;
38615;SDS011;24370;51.986;4.666;2023-04-25T03:56:51;16.10;;;2.80;;
38615;SDS011;24370;51.986;4.666;2023-04-25T03:59:16;12.60;;;2.33;;
38615;SDS011;24370;51.986;4.666;2023-04-25T04:01:42;17.17;;;3.27;;
38615;SDS011;24370;51.986;4.666;2023-04-25T04:04:07;13.63;;;2.33;;
38615;SDS011;24370;51.986;4.666;2023-04-25T04:06:32;22.47;;;2.80;;
38615;SDS011;24370;51.986;4.666;2023-04-25T04:08:58;13.17;;;2.53;;
38615;SDS011;24370;51.986;4.666;2023-04-25T04:11:23;14.40;;;2.53;;
38615;SDS011;24370;51.986;4.666;2023-04-25T04:13:49;14.00;;;2.37;;
38615;SDS011;24370;51.986;4.666;2023-04-25T04:16:14;11.40;;;2.57;;
38615;SDS011;24370;51.986;4.666;2023-04-25T04:18:40;16.47;;;2.47;;
38615;SDS011;24370;51.986;4.666;2023-04-25T04:21:05;11.87;;;2.00;;
38615;SDS011;24370;51.986;4.666;2023-04-25T04:23:30;15.17;;;2.07;;
38615;SDS011;24370;51.986;4.666;2023-04-25T04:25:56;8.70;;;2.03;;
38615;SDS011;24370;51.986;4.666;2023-04-25T04:28:21;12.13;;;2.60;;
38615;SDS011;24370;51.986;4.666;2023-04-25T04:30:47;8.43;;;1.80;;
38615;SDS011;24370;51.986;4.666;2023-04-25T04:33:12;11.00;;;2.03;;
38615;SDS011;24370;51.986;4.666;2023-04-25T04:35:40;16.93;;;2.13;;
38615;SDS011;24370;51.986;4.666;2023-04-25T04:38:06;13.43;;;2.37;;
38615;SDS011;24370;51.986;4.666;2023-04-25T04:40:32;13.67;;;2.47;;
38615;SDS011;24370;51.986;4.666;2023-04-25T04:42:57;13.97;;;2.50;;
38615;SDS011;24370;51.986;4.666;2023-04-25T04:45:23;12.33;;;2.40;;
38615;SDS011;24370;51.986;4.666;2023-04-25T04:47:48;11.10;;;2.10;;
38615;SDS011;24370;51.986;4.666;2023-04-25T04:50:15;15.57;;;2.90;;
38615;SDS011;24370;51.986;4.666;2023-04-25T04:52:41;10.97;;;2.47;;
38615;SDS011;24370;51.986;4.666;2023-04-25T04:55:07;14.40;;;2.10;;
38615;SDS011;24370;51.986;4.666;2023-04-25T04:57:33;9.13;;;2.47;;
38615;SDS011;24370;51.986;4.666;2023-04-25T04:59:59;10.93;;;2.97;;
38615;SDS011;24370;51.986;4.666;2023-04-25T05:02:25;13.63;;;2.07;;
38615;SDS011;24370;51.986;4.666;2023-04-25T05:04:51;9.23;;;1.97;;
38615;SDS011;24370;51.986;4.666;2023-04-25T05:07:17;11.63;;;2.00;;
38615;SDS011;24370;51.986;4.666;2023-04-25T05:09:43;12.17;;;2.13;;
38615;SDS011;24370;51.986;4.666;2023-04-25T05:12:09;11.47;;;1.80;;
38615;SDS011;24370;51.986;4.666;2023-04-25T05:14:34;14.73;;;2.57;;
38615;SDS011;24370;51.986;4.666;2023-04-25T05:17:00;12.77;;;2.33;;
38615;SDS011;24370;51.986;4.666;2023-04-25T05:19:25;7.47;;;2.10;;
38615;SDS011;24370;51.986;4.666;2023-04-25T05:21:51;9.67;;;2.73;;
38615;SDS011;24370;51.986;4.666;2023-04-25T05:24:17;12.60;;;2.30;;
38615;SDS011;24370;51.986;4.666;2023-04-25T05:26:42;14.43;;;3.10;;
38615;SDS011;24370;51.986;4.666;2023-04-25T05:29:07;11.77;;;2.30;;
38615;SDS011;24370;51.986;4.666;2023-04-25T05:31:33;11.70;;;2.20;;
38615;SDS011;24370;51.986;4.666;2023-04-25T05:33:59;8.37;;;3.40;;
38615;SDS011;24370;51.986;4.666;2023-04-25T05:36:24;12.27;;;3.00;;
38615;SDS011;24370;51.986;4.666;2023-04-25T05:38:50;18.77;;;2.50;;
38615;SDS011;24370;51.986;4.666;2023-04-25T05:41:16;11.77;;;2.43;;
38615;SDS011;24370;51.986;4.666;2023-04-25T05:43:41;9.40;;;2.00;;
38615;SDS011;24370;51.986;4.666;2023-04-25T05:46:11;8.63;;;3.10;;
38615;SDS011;24370;51.986;4.666;2023-04-25T05:48:37;9.87;;;2.10;;
38615;SDS011;24370;51.986;4.666;2023-04-25T05:51:06;13.57;;;3.00;;
38615;SDS011;24370;51.986;4.666;2023-04-25T05:53:31;7.47;;;2.00;;
38615;SDS011;24370;51.986;4.666;2023-04-25T05:55:56;11.93;;;2.13;;
38615;SDS011;24370;51.986;4.666;2023-04-25T05:58:22;7.00;;;1.57;;
38615;SDS011;24370;51.986;4.666;2023-04-25T06:00:47;8.43;;;2.03;;
38615;SDS011;24370;51.986;4.666;2023-04-25T06:03:13;9.63;;;1.60;;
38615;SDS011;24370;51.986;4.666;2023-04-25T06:05:41;5.00;;;1.57;;
38615;SDS011;24370;51.986;4.666;2023-04-25T06:08:07;8.20;;;1.50;;
38615;SDS011;24370;51.986;4.666;2023-04-25T06:10:33;11.37;;;1.50;;
38615;SDS011;24370;51.986;4.666;2023-04-25T06:12:58;5.57;;;1.60;;
38615;SDS011;24370;51.986;4.666;2023-04-25T06:15:23;3.33;;;0.87;;
38615;SDS011;24370;51.986;4.666;2023-04-25T06:17:49;6.37;;;1.83;;
38615;SDS011;24370;51.986;4.666;2023-04-25T06:20:14;7.67;;;1.80;;
38615;SDS011;24370;51.986;4.666;2023-04-25T06:22:39;6.97;;;1.20;;
38615;SDS011;24370;51.986;4.666;2023-04-25T06:25:05;4.50;;;2.13;;
38615;SDS011;24370;51.986;4.666;2023-04-25T06:27:32;3.20;;;1.40;;
38615;SDS011;24370;51.986;4.666;2023-04-25T06:29:58;8.53;;;1.50;;
38615;SDS011;24370;51.986;4.666;2023-04-25T06:32:23;6.27;;;1.43;;
38615;SDS011;24370;51.986;4.666;2023-04-25T06:34:48;5.50;;;1.37;;
38615;SDS011;24370;51.986;4.666;2023-04-25T06:37:14;6.20;;;1.20;;
38615;SDS011;24370;51.986;4.666;2023-04-25T06:39:39;4.23;;;1.40;;
38615;SDS011;24370;51.986;4.666;2023-04-25T06:42:05;5.03;;;1.20;;
38615;SDS011;24370;51.986;4.666;2023-04-25T06:44:30;3.70;;;1.13;;
38615;SDS011;24370;51.986;4.666;2023-04-25T06:46:55;8.00;;;1.30;;
38615;SDS011;24370;51.986;4.666;2023-04-25T06:49:21;3.37;;;1.10;;
38615;SDS011;24370;51.986;4.666;2023-04-25T06:51:46;6.47;;;1.30;;
38615;SDS011;24370;51.986;4.666;2023-04-25T06:54:12;6.10;;;1.47;;
38615;SDS011;24370;51.986;4.666;2023-04-25T06:56:37;7.13;;;1.47;;
38615;SDS011;24370;51.986;4.666;2023-04-25T06:59:04;3.73;;;1.30;;
38615;SDS011;24370;51.986;4.666;2023-04-25T07:01:30;4.13;;;1.10;;
38615;SDS011;24370;51.986;4.666;2023-04-25T07:03:55;5.97;;;1.47;;
38615;SDS011;24370;51.986;4.666;2023-04-25T07:06:20;7.20;;;1.40;;
38615;SDS011;24370;51.986;4.666;2023-04-25T07:08:46;7.90;;;1.67;;
38615;SDS011;24370;51.986;4.666;2023-04-25T07:11:11;7.30;;;1.50;;
38615;SDS011;24370;51.986;4.666;2023-04-25T07:13:37;9.13;;;1.40;;
38615;SDS011;24370;51.986;4.666;2023-04-25T07:16:02;3.50;;;1.30;;
38615;SDS011;24370;51.986;4.666;2023-04-25T07:18:28;14.97;;;3.70;;
38615;SDS011;24370;51.986;4.666;2023-04-25T07:20:53;8.97;;;2.83;;
38615;SDS011;24370;51.986;4.666;2023-04-25T07:23:18;7.37;;;1.60;;
38615;SDS011;24370;51.986;4.666;2023-04-25T07:25:44;7.97;;;2.43;;
38615;SDS011;24370;51.986;4.666;2023-04-25T07:28:09;12.57;;;2.17;;
38615;SDS011;24370;51.986;4.666;2023-04-25T07:30:35;10.67;;;3.03;;
38615;SDS011;24370;51.986;4.666;2023-04-25T07:33:01;8.43;;;2.80;;
38615;SDS011;24370;51.986;4.666;2023-04-25T07:35:27;13.80;;;2.40;;
38615;SDS011;24370;51.986;4.666;2023-04-25T07:37:52;12.77;;;1.77;;
38615;SDS011;24370;51.986;4.666;2023-04-25T07:40:17;10.90;;;2.03;;
38615;SDS011;24370;51.986;4.666;2023-04-25T07:42:43;6.23;;;1.97;;
38615;SDS011;24370;51.986;4.666;2023-04-25T07:45:08;10.40;;;2.43;;
38615;SDS011;24370;51.986;4.666;2023-04-25T07:47:34;11.47;;;1.60;;
38615;SDS011;24370;51.986;4.666;2023-04-25T07:50:00;7.70;;;1.50;;
38615;SDS011;24370;51.986;4.666;2023-04-25T07:52:25;10.33;;;2.00;;
38615;SDS011;24370;51.986;4.666;2023-04-25T07:54:51;8.00;;;1.50;;
38615;SDS011;24370;51.986;4.666;2023-04-25T07:57:16;11.90;;;1.70;;
38615;SDS011;24370;51.986;4.666;2023-04-25T07:59:43;9.70;;;1.60;;
38615;SDS011;24370;51.986;4.666;2023-04-25T08:02:08;11.87;;;2.00;;
38615;SDS011;24370;51.986;4.666;2023-04-25T08:04:33;9.57;;;1.47;;
38615;SDS011;24370;51.986;4.666;2023-04-25T08:06:59;5.17;;;1.30;;
38615;SDS011;24370;51.986;4.666;2023-04-25T08:09:24;8.77;;;1.37;;
38615;SDS011;24370;51.986;4.666;2023-04-25T08:11:50;12.50;;;1.53;;
38615;SDS011;24370;51.986;4.666;2023-04-25T08:14:15;9.33;;;1.33;;
38615;SDS011;24370;51.986;4.666;2023-04-25T08:16:41;9.17;;;1.37;;
38615;SDS011;24370;51.986;4.666;2023-04-25T08:19:07;6.13;;;1.20;;
38615;SDS011;24370;51.986;4.666;2023-04-25T08:21:32;8.97;;;1.50;;
38615;SDS011;24370;51.986;4.666;2023-04-25T08:23:57;8.03;;;1.43;;
38615;SDS011;24370;51.986;4.666;2023-04-25T08:26:23;6.30;;;1.27;;
38615;SDS011;24370;51.986;4.666;2023-04-25T08:28:50;10.82;;;1.20;;
38615;SDS011;24370;51.986;4.666;2023-04-25T08:31:16;4.38;;;1.08;;
38615;SDS011;24370;51.986;4.666;2023-04-25T08:33:42;6.57;;;0.90;;
38615;SDS011;24370;51.986;4.666;2023-04-25T08:36:07;13.43;;;1.27;;
38615;SDS011;24370;51.986;4.666;2023-04-25T08:38:33;10.93;;;1.33;;
38615;SDS011;24370;51.986;4.666;2023-04-25T08:40:58;11.97;;;1.70;;
38615;SDS011;24370;51.986;4.666;2023-04-25T08:43:26;4.43;;;1.10;;
38615;SDS011;24370;51.986;4.666;2023-04-25T08:45:53;5.10;;;0.87;;
38615;SDS011;24370;51.986;4.666;2023-04-25T08:48:25;6.07;;;1.37;;
38615;SDS011;24370;51.986;4.666;2023-04-25T08:50:53;14.20;;;2.07;;
38615;SDS011;24370;51.986;4.666;2023-04-25T08:53:22;8.37;;;1.40;;
38615;SDS011;24370;51.986;4.666;2023-04-25T08:55:50;3.67;;;0.73;;
38615;SDS011;24370;51.986;4.666;2023-04-25T08:58:18;9.82;;;1.30;;
38615;SDS011;24370;51.986;4.666;2023-04-25T09:00:45;5.35;;;0.77;;
38615;SDS011;24370;51.986;4.666;2023-04-25T09:03:12;6.57;;;1.63;;
38615;SDS011;24370;51.986;4.666;2023-04-25T09:05:38;4.80;;;1.05;;
38615;SDS011;24370;51.986;4.666;2023-04-25T09:08:05;3.47;;;0.93;;
38615;SDS011;24370;51.986;4.666;2023-04-25T09:10:31;7.38;;;1.13;;
38615;SDS011;24370;51.986;4.666;2023-04-25T09:15:33;7.60;;;1.52;;
38615;SDS011;24370;51.986;4.666;2023-04-25T09:18:12;8.68;;;1.00;;
38615;SDS011;24370;51.986;4.666;2023-04-25T09:20:43;4.75;;;0.70;;
38615;SDS011;24370;51.986;4.666;2023-04-25T09:23:09;3.17;;;0.80;;
38615;SDS011;24370;51.986;4.666;2023-04-25T09:25:37;4.60;;;0.90;;
38615;SDS011;24370;51.986;4.666;2023-04-25T09:28:08;3.15;;;0.70;;
38615;SDS011;24370;51.986;4.666;2023-04-25T09:30:34;3.35;;;0.93;;
38615;SDS011;24370;51.986;4.666;2023-04-25T09:33:05;7.07;;;1.15;;
38615;SDS011;24370;51.986;4.666;2023-04-25T09:35:38;10.63;;;1.73;;
38615;SDS011;24370;51.986;4.666;2023-04-25T09:38:14;9.07;;;1.17;;
38615;SDS011;24370;51.986;4.666;2023-04-25T09:40:40;4.83;;;0.97;;
38615;SDS011;24370;51.986;4.666;2023-04-25T09:43:09;6.00;;;1.10;;
38615;SDS011;24370;51.986;4.666;2023-04-25T09:45:45;4.43;;;1.30;;
38615;SDS011;24370;51.986;4.666;2023-04-25T09:48:16;7.10;;;1.02;;
38615;SDS011;24370;51.986;4.666;2023-04-25T09:51:07;8.57;;;1.00;;
38615;SDS011;24370;51.986;4.666;2023-04-25T09:53:42;2.72;;;0.82;;
38615;SDS011;24370;51.986;4.666;2023-04-25T09:56:09;2.35;;;0.80;;
38615;SDS011;24370;51.986;4.666;2023-04-25T09:58:36;4.35;;;0.60;;
38615;SDS011;24370;51.986;4.666;2023-04-25T10:01:07;4.38;;;0.75;;
38615;SDS011;24370;51.986;4.666;2023-04-25T10:03:34;4.38;;;1.30;;
38615;SDS011;24370;51.986;4.666;2023-04-25T10:06:01;5.18;;;0.90;;
38615;SDS011;24370;51.986;4.666;2023-04-25T10:08:33;5.25;;;0.80;;
38615;SDS011;24370;51.986;4.666;2023-04-25T10:11:01;3.67;;;0.90;;
38615;SDS011;24370;51.986;4.666;2023-04-25T10:13:32;3.10;;;1.00;;
38615;SDS011;24370;51.986;4.666;2023-04-25T10:15:58;5.78;;;0.80;;
38615;SDS011;24370;51.986;4.666;2023-04-25T10:18:26;8.32;;;1.33;;
38615;SDS011;24370;51.986;4.666;2023-04-25T10:20:53;9.50;;;1.20;;
38615;SDS011;24370;51.986;4.666;2023-04-25T10:23:20;5.63;;;1.60;;
38615;SDS011;24370;51.986;4.666;2023-04-25T10:25:46;14.43;;;1.70;;
38615;SDS011;24370;51.986;4.666;2023-04-25T10:28:11;5.03;;;1.13;;
38615;SDS011;24370;51.986;4.666;2023-04-25T10:30:37;11.63;;;1.30;;
38615;SDS011;24370;51.986;4.666;2023-04-25T10:33:02;11.53;;;1.33;;
38615;SDS011;24370;51.986;4.666;2023-04-25T10:35:42;12.47;;;2.17;;
38615;SDS011;24370;51.986;4.666;2023-04-25T10:38:10;8.05;;;0.90;;
38615;SDS011;24370;51.986;4.666;2023-04-25T10:40:38;5.85;;;0.93;;
38615;SDS011;24370;51.986;4.666;2023-04-25T10:46:01;10.43;;;1.37;;
38615;SDS011;24370;51.986;4.666;2023-04-25T10:48:29;12.67;;;1.77;;
38615;SDS011;24370;51.986;4.666;2023-04-25T10:51:08;6.63;;;1.27;;
38615;SDS011;24370;51.986;4.666;2023-04-25T10:53:37;5.63;;;1.13;;
38615;SDS011;24370;51.986;4.666;2023-04-25T10:56:09;7.93;;;1.00;;
38615;SDS011;24370;51.986;4.666;2023-04-25T10:58:45;4.97;;;0.90;;
38615;SDS011;24370;51.986;4.666;2023-04-25T11:01:15;4.22;;;0.75;;
38615;SDS011;24370;51.986;4.666;2023-04-25T11:03:45;4.15;;;1.08;;
38615;SDS011;24370;51.986;4.666;2023-04-25T11:06:15;6.75;;;0.90;;
38615;SDS011;24370;51.986;4.666;2023-04-25T11:08:56;5.35;;;1.10;;
38615;SDS011;24370;51.986;4.666;2023-04-25T11:11:22;10.75;;;1.38;;
38615;SDS011;24370;51.986;4.666;2023-04-25T11:13:48;5.70;;;1.25;;
38615;SDS011;24370;51.986;4.666;2023-04-25T11:16:15;4.57;;;1.10;;
38615;SDS011;24370;51.986;4.666;2023-04-25T11:18:41;8.98;;;1.30;;
38615;SDS011;24370;51.986;4.666;2023-04-25T11:21:07;5.30;;;0.93;;
38615;SDS011;24370;51.986;4.666;2023-04-25T11:23:33;8.90;;;1.30;;
38615;SDS011;24370;51.986;4.666;2023-04-25T11:25:58;10.83;;;1.40;;
38615;SDS011;24370;51.986;4.666;2023-04-25T11:28:26;6.03;;;1.20;;
38615;SDS011;24370;51.986;4.666;2023-04-25T11:30:51;4.03;;;0.70;;
38615;SDS011;24370;51.986;4.666;2023-04-25T11:33:17;6.10;;;1.20;;
38615;SDS011;24370;51.986;4.666;2023-04-25T11:35:47;7.72;;;1.20;;
38615;SDS011;24370;51.986;4.666;2023-04-25T11:38:12;5.07;;;0.90;;
38615;SDS011;24370;51.986;4.666;2023-04-25T11:40:38;6.55;;;1.40;;
38615;SDS011;24370;51.986;4.666;2023-04-25T11:43:07;6.82;;;0.80;;
38615;SDS011;24370;51.986;4.666;2023-04-25T11:45:34;7.90;;;1.10;;
38615;SDS011;24370;51.986;4.666;2023-04-25T11:48:02;9.60;;;1.15;;
38615;SDS011;24370;51.986;4.666;2023-04-25T11:50:28;5.55;;;1.17;;
38615;SDS011;24370;51.986;4.666;2023-04-25T11:52:55;4.43;;;1.00;;
38615;SDS011;24370;51.986;4.666;2023-04-25T11:55:21;3.95;;;0.88;;
38615;SDS011;24370;51.986;4.666;2023-04-25T11:57:48;5.80;;;1.25;;
38615;SDS011;24370;51.986;4.666;2023-04-25T12:00:16;4.90;;;1.02;;
38615;SDS011;24370;51.986;4.666;2023-04-25T12:02:43;5.65;;;0.90;;
38615;SDS011;24370;51.986;4.666;2023-04-25T12:05:11;6.43;;;1.25;;
38615;SDS011;24370;51.986;4.666;2023-04-25T12:07:38;6.10;;;1.33;;
38615;SDS011;24370;51.986;4.666;2023-04-25T12:10:07;4.38;;;0.82;;
38615;SDS011;24370;51.986;4.666;2023-04-25T12:12:34;7.28;;;1.13;;
38615;SDS011;24370;51.986;4.666;2023-04-25T12:15:22;11.48;;;1.30;;
38615;SDS011;24370;51.986;4.666;2023-04-25T12:17:50;4.70;;;0.90;;
38615;SDS011;24370;51.986;4.666;2023-04-25T12:20:21;3.30;;;1.08;;
38615;SDS011;24370;51.986;4.666;2023-04-25T12:22:50;5.07;;;1.08;;
38615;SDS011;24370;51.986;4.666;2023-04-25T12:25:35;5.63;;;0.95;;
38615;SDS011;24370;51.986;4.666;2023-04-25T12:28:11;3.70;;;1.02;;
38615;SDS011;24370;51.986;4.666;2023-04-25T12:30:54;8.52;;;1.10;;
38615;SDS011;24370;51.986;4.666;2023-04-25T12:33:20;4.50;;;1.03;;
38615;SDS011;24370;51.986;4.666;2023-04-25T12:35:46;6.57;;;1.27;;
38615;SDS011;24370;51.986;4.666;2023-04-25T12:38:19;3.45;;;1.10;;
38615;SDS011;24370;51.986;4.666;2023-04-25T12:40:46;2.45;;;0.82;;
38615;SDS011;24370;51.986;4.666;2023-04-25T12:43:11;1.25;;;0.55;;
38615;SDS011;24370;51.986;4.666;2023-04-25T12:45:36;3.97;;;0.60;;
38615;SDS011;24370;51.986;4.666;2023-04-25T12:48:02;4.60;;;1.45;;
38615;SDS011;24370;51.986;4.666;2023-04-25T12:50:27;5.60;;;1.00;;
38615;SDS011;24370;51.986;4.666;2023-04-25T12:52:53;4.18;;;1.10;;
38615;SDS011;24370;51.986;4.666;2023-04-25T12:55:18;2.95;;;0.80;;
38615;SDS011;24370;51.986;4.666;2023-04-25T12:57:44;7.32;;;1.10;;
38615;SDS011;24370;51.986;4.666;2023-04-25T13:00:09;5.93;;;1.05;;
38615;SDS011;24370;51.986;4.666;2023-04-25T13:02:35;5.82;;;0.90;;
38615;SDS011;24370;51.986;4.666;2023-04-25T13:05:00;6.27;;;1.53;;
38615;SDS011;24370;51.986;4.666;2023-04-25T13:07:26;9.03;;;1.40;;
38615;SDS011;24370;51.986;4.666;2023-04-25T13:09:51;11.83;;;1.30;;
38615;SDS011;24370;51.986;4.666;2023-04-25T13:12:16;7.57;;;1.80;;
38615;SDS011;24370;51.986;4.666;2023-04-25T13:14:42;5.63;;;1.10;;
38615;SDS011;24370;51.986;4.666;2023-04-25T13:17:07;4.63;;;1.10;;
38615;SDS011;24370;51.986;4.666;2023-04-25T13:19:33;3.40;;;0.80;;
38615;SDS011;24370;51.986;4.666;2023-04-25T13:21:58;8.03;;;0.90;;
38615;SDS011;24370;51.986;4.666;2023-04-25T13:24:23;10.63;;;1.20;;
38615;SDS011;24370;51.986;4.666;2023-04-25T13:26:49;19.87;;;1.87;;
38615;SDS011;24370;51.986;4.666;2023-04-25T13:29:14;8.50;;;1.10;;
38615;SDS011;24370;51.986;4.666;2023-04-25T13:31:39;6.90;;;1.30;;
38615;SDS011;24370;51.986;4.666;2023-04-25T13:34:05;6.13;;;1.40;;
38615;SDS011;24370;51.986;4.666;2023-04-25T13:36:30;6.97;;;1.10;;
38615;SDS011;24370;51.986;4.666;2023-04-25T13:38:56;3.87;;;1.30;;
38615;SDS011;24370;51.986;4.666;2023-04-25T13:41:22;4.77;;;1.13;;
38615;SDS011;24370;51.986;4.666;2023-04-25T13:43:47;4.97;;;1.07;;
38615;SDS011;24370;51.986;4.666;2023-04-25T13:46:12;8.17;;;1.03;;
38615;SDS011;24370;51.986;4.666;2023-04-25T13:48:40;4.93;;;1.23;;
38615;SDS011;24370;51.986;4.666;2023-04-25T13:51:11;9.53;;;2.03;;
38615;SDS011;24370;51.986;4.666;2023-04-25T13:53:36;5.93;;;1.40;;
38615;SDS011;24370;51.986;4.666;2023-04-25T13:56:02;4.40;;;1.10;;
38615;SDS011;24370;51.986;4.666;2023-04-25T13:58:27;8.37;;;1.97;;
38615;SDS011;24370;51.986;4.666;2023-04-25T14:00:52;11.00;;;1.47;;
38615;SDS011;24370;51.986;4.666;2023-04-25T14:03:18;7.20;;;1.43;;
38615;SDS011;24370;51.986;4.666;2023-04-25T14:05:44;6.77;;;1.33;;
38615;SDS011;24370;51.986;4.666;2023-04-25T14:08:09;3.47;;;1.00;;
38615;SDS011;24370;51.986;4.666;2023-04-25T14:10:35;4.37;;;1.17;;
38615;SDS011;24370;51.986;4.666;2023-04-25T14:13:01;6.07;;;1.30;;
38615;SDS011;24370;51.986;4.666;2023-04-25T14:15:28;6.77;;;1.17;;
38615;SDS011;24370;51.986;4.666;2023-04-25T14:17:54;9.80;;;1.30;;
38615;SDS011;24370;51.986;4.666;2023-04-25T14:20:19;5.70;;;0.93;;
38615;SDS011;24370;51.986;4.666;2023-04-25T14:22:46;10.10;;;1.10;;
38615;SDS011;24370;51.986;4.666;2023-04-25T14:25:11;5.87;;;1.07;;
38615;SDS011;24370;51.986;4.666;2023-04-25T14:27:37;7.73;;;1.57;;
38615;SDS011;24370;51.986;4.666;2023-04-25T14:30:06;3.57;;;0.90;;
38615;SDS011;24370;51.986;4.666;2023-04-25T14:32:33;5.50;;;0.97;;
38615;SDS011;24370;51.986;4.666;2023-04-25T14:34:59;4.43;;;1.20;;
38615;SDS011;24370;51.986;4.666;2023-04-25T14:37:24;6.30;;;1.17;;
38615;SDS011;24370;51.986;4.666;2023-04-25T14:39:50;6.67;;;1.20;;
38615;SDS011;24370;51.986;4.666;2023-04-25T14:42:15;7.63;;;1.60;;